createdAt,value
2019-05-03T00:01:42.987Z,16.60
2019-05-03T00:04:13.370Z,15.95
2019-05-03T00:06:42.684Z,17.45
2019-05-03T00:09:12.991Z,18.62
2019-05-03T00:11:42.255Z,16.97
2019-05-03T00:14:12.429Z,17.27
2019-05-03T00:16:43.067Z,18.55
2019-05-03T00:19:12.708Z,18.62
2019-05-03T00:21:42.027Z,18.02
2019-05-03T00:24:11.918Z,18.60
2019-05-03T00:26:42.217Z,16.77
2019-05-03T00:29:12.629Z,16.10
2019-05-03T00:31:42.343Z,17.02
2019-05-03T00:34:28.707Z,16.77
2019-05-03T00:36:58.805Z,17.87
2019-05-03T00:39:42.427Z,16.75
2019-05-03T00:42:11.933Z,16.60
2019-05-03T00:44:42.213Z,17.50
2019-05-03T00:47:12.593Z,17.60
2019-05-03T00:49:42.684Z,17.82
2019-05-03T00:52:11.767Z,16.17
2019-05-03T00:54:42.225Z,17.57
2019-05-03T00:57:12.074Z,18.30
2019-05-03T00:59:42.044Z,18.65
2019-05-03T01:02:11.827Z,19.45
2019-05-03T01:04:42.566Z,17.45
2019-05-03T01:07:11.818Z,18.12
2019-05-03T01:09:42.301Z,17.02
2019-05-03T01:12:12.607Z,18.07
2019-05-03T01:14:43.538Z,17.37
2019-05-03T01:17:12.436Z,18.87
2019-05-03T01:19:42.678Z,19.27
2019-05-03T01:22:11.913Z,18.07
2019-05-03T01:24:42.681Z,19.10
2019-05-03T01:27:12.443Z,20.60
2019-05-03T01:29:42.474Z,19.52
2019-05-03T01:32:11.580Z,20.00
2019-05-03T01:34:41.648Z,19.32
2019-05-03T01:37:11.823Z,18.50
2019-05-03T01:39:42.148Z,19.02
2019-05-03T01:42:11.936Z,18.65
2019-05-03T01:44:42.615Z,19.67
2019-05-03T01:47:32.554Z,19.42
2019-05-03T01:50:15.060Z,18.87
2019-05-03T01:52:45.571Z,19.00
2019-05-03T01:55:16.021Z,18.40
2019-05-03T01:57:44.899Z,19.50
2019-05-03T02:00:15.362Z,17.82
2019-05-03T02:02:45.483Z,19.62
2019-05-03T02:05:32.160Z,17.80
2019-05-03T02:08:02.061Z,16.62
2019-05-03T02:10:32.205Z,18.07
2019-05-03T02:13:01.673Z,19.12
2019-05-03T02:15:32.564Z,19.42
2019-05-03T02:18:02.768Z,18.25
2019-05-03T02:20:32.386Z,18.65
2019-05-03T02:23:02.802Z,18.35
2019-05-03T02:25:32.367Z,18.80
2019-05-03T02:28:01.910Z,17.67
2019-05-03T02:30:33.136Z,17.40
2019-05-03T02:33:03.936Z,16.90
2019-05-03T02:35:33.352Z,18.42
2019-05-03T02:38:03.715Z,16.10
2019-05-03T02:40:33.868Z,17.20
2019-05-03T02:43:07.180Z,16.85
2019-05-03T02:45:37.811Z,20.20
2019-05-03T02:48:11.524Z,17.50
2019-05-03T02:50:40.413Z,17.27
2019-05-03T02:53:08.967Z,20.55
2019-05-03T02:55:37.489Z,21.75
2019-05-03T02:58:06.047Z,22.80
2019-05-03T03:00:49.608Z,20.92
2019-05-03T03:03:18.234Z,22.35
2019-05-03T03:05:47.817Z,25.02
2019-05-03T03:08:19.808Z,25.50
2019-05-03T03:10:48.787Z,28.10
2019-05-03T03:13:17.780Z,29.45
2019-05-03T03:15:47.371Z,29.63
2019-05-03T03:18:16.776Z,30.05
2019-05-03T03:20:47.621Z,31.80
2019-05-03T03:23:18.671Z,31.82
2019-05-03T03:25:49.395Z,29.25
2019-05-03T03:28:21.522Z,32.80
2019-05-03T03:31:01.769Z,30.97
2019-05-03T03:33:30.848Z,30.00
2019-05-03T03:36:29.312Z,33.78
2019-05-03T03:38:29.840Z,39.45
2019-05-03T03:40:58.970Z,33.78
2019-05-03T03:43:28.427Z,33.08
2019-05-03T03:45:58.319Z,34.33
2019-05-03T03:48:27.239Z,37.83
2019-05-03T03:50:56.355Z,34.38
2019-05-03T03:53:26.794Z,34.98
2019-05-03T03:55:56.921Z,34.23
2019-05-03T03:58:27.089Z,33.05
2019-05-03T04:00:55.932Z,31.05
2019-05-03T04:03:26.048Z,30.75
2019-05-03T04:05:55.582Z,31.95
2019-05-03T04:08:25.184Z,30.43
2019-05-03T04:10:55.823Z,26.33
2019-05-03T04:13:25.520Z,25.15
2019-05-03T04:16:08.643Z,22.98
2019-05-03T04:18:51.356Z,19.12
2019-05-03T04:21:20.148Z,14.00
2019-05-03T04:23:49.691Z,13.88
2019-05-03T04:26:18.151Z,10.88
2019-05-03T04:28:48.630Z,10.82
2019-05-03T04:31:17.174Z,11.40
2019-05-03T04:33:46.178Z,11.73
2019-05-03T04:36:15.973Z,13.48
2019-05-03T04:38:45.332Z,12.75
2019-05-03T04:41:15.868Z,13.08
2019-05-03T04:43:45.997Z,13.68
2019-05-03T04:46:16.571Z,12.85
2019-05-03T04:48:45.255Z,12.23
2019-05-03T04:51:16.520Z,13.43
2019-05-03T04:53:45.627Z,13.08
2019-05-03T04:56:16.908Z,13.70
2019-05-03T04:58:45.888Z,11.48
2019-05-03T05:01:15.839Z,11.85
2019-05-03T05:03:47.246Z,11.05
2019-05-03T05:06:16.130Z,11.00
2019-05-03T05:08:46.117Z,9.08
2019-05-03T05:11:15.831Z,9.38
2019-05-03T05:13:45.699Z,9.28
2019-05-03T05:16:16.048Z,8.30
2019-05-03T05:18:46.337Z,8.28
2019-05-03T05:21:16.455Z,8.03
2019-05-03T05:23:59.551Z,7.60
2019-05-03T05:26:29.735Z,7.45
2019-05-03T05:29:09.082Z,7.58
2019-05-03T05:31:37.620Z,6.97
2019-05-03T05:34:08.866Z,7.35
2019-05-03T05:36:37.756Z,6.97
2019-05-03T05:39:08.570Z,5.47
2019-05-03T05:41:37.399Z,5.50
2019-05-03T05:44:05.851Z,5.67
2019-05-03T05:46:35.961Z,5.08
2019-05-03T05:49:06.427Z,5.40
2019-05-03T05:51:35.352Z,5.30
2019-05-03T05:54:05.248Z,4.70
2019-05-03T05:56:35.779Z,4.83
2019-05-03T05:59:12.177Z,4.12
2019-05-03T06:01:45.718Z,4.20
2019-05-03T06:04:15.766Z,4.22
2019-05-03T06:06:45.877Z,4.00
2019-05-03T06:09:21.951Z,4.05
2019-05-03T06:11:58.070Z,3.80
2019-05-03T06:14:31.195Z,4.47
2019-05-03T06:17:05.483Z,4.30
2019-05-03T06:19:39.020Z,4.17
2019-05-03T06:22:21.423Z,4.87
2019-05-03T06:24:54.424Z,4.33
2019-05-03T06:27:24.948Z,4.22
2019-05-03T06:29:55.359Z,3.75
2019-05-03T06:32:27.138Z,4.25
2019-05-03T06:34:55.583Z,4.45
2019-05-03T06:37:28.603Z,3.70
2019-05-03T06:39:57.051Z,4.47
2019-05-03T06:42:29.172Z,4.20
2019-05-03T06:44:59.710Z,4.80
2019-05-03T06:47:28.605Z,4.25
2019-05-03T06:49:57.496Z,4.20
2019-05-03T06:52:29.344Z,4.50
2019-05-03T06:55:00.478Z,4.65
2019-05-03T06:57:26.579Z,5.05
2019-05-03T06:59:56.687Z,5.47
2019-05-03T07:02:41.894Z,4.97
2019-05-03T07:05:12.551Z,4.22
2019-05-03T07:07:44.446Z,4.28
2019-05-03T07:12:57.839Z,4.65
2019-05-03T07:15:26.726Z,4.15
2019-05-03T07:17:55.735Z,3.33
2019-05-03T07:20:25.541Z,3.90
2019-05-03T07:22:55.945Z,4.72
2019-05-03T07:25:25.584Z,4.60
2019-05-03T07:27:55.488Z,3.95
2019-05-03T07:30:24.872Z,4.00
2019-05-03T07:32:55.143Z,4.03
2019-05-03T07:35:25.174Z,4.20
2019-05-03T07:37:55.361Z,4.00
2019-05-03T07:40:25.231Z,3.55
2019-05-03T07:42:55.452Z,4.17
2019-05-03T07:45:25.426Z,3.42
2019-05-03T07:47:55.857Z,3.80
2019-05-03T07:50:26.088Z,4.15
2019-05-03T07:52:55.559Z,3.83
2019-05-03T07:55:42.573Z,4.40
2019-05-03T07:58:14.476Z,4.22
2019-05-03T08:00:44.750Z,5.00
2019-05-03T08:03:15.315Z,4.47
2019-05-03T08:05:45.471Z,4.80
2019-05-03T08:08:14.913Z,4.65
2019-05-03T08:10:45.155Z,4.85
2019-05-03T08:13:15.171Z,5.42
2019-05-03T08:15:45.171Z,5.12
2019-05-03T08:18:15.345Z,5.78
2019-05-03T08:20:45.396Z,5.53
2019-05-03T08:23:26.312Z,5.85
2019-05-03T08:25:44.790Z,5.55
2019-05-03T08:28:14.669Z,5.55
2019-05-03T08:30:45.268Z,5.42
2019-05-03T08:33:27.379Z,5.60
2019-05-03T08:35:56.314Z,5.42
2019-05-03T08:38:25.763Z,5.28
2019-05-03T08:40:56.803Z,5.05
2019-05-03T08:43:25.633Z,5.15
2019-05-03T08:45:55.403Z,4.60
2019-05-03T08:48:24.972Z,4.97
2019-05-03T08:50:55.435Z,5.92
2019-05-03T08:53:25.636Z,4.78
2019-05-03T08:55:55.261Z,6.40
2019-05-03T08:58:25.597Z,6.80
2019-05-03T09:00:55.590Z,6.03
2019-05-03T09:03:24.926Z,6.35
2019-05-03T09:05:56.363Z,5.65
2019-05-03T09:08:24.850Z,4.87
2019-05-03T09:10:55.151Z,3.98
2019-05-03T09:13:25.129Z,3.75
2019-05-03T09:15:55.238Z,3.30
2019-05-03T09:18:25.779Z,3.30
2019-05-03T09:20:55.796Z,3.27
2019-05-03T09:23:26.032Z,3.25
2019-05-03T09:25:55.068Z,3.60
2019-05-03T09:28:25.708Z,2.75
2019-05-03T09:30:55.264Z,3.15
2019-05-03T09:33:24.899Z,3.40
2019-05-03T09:35:54.972Z,3.25
2019-05-03T09:38:25.517Z,2.67
2019-05-03T09:40:54.764Z,2.77
2019-05-03T09:43:25.047Z,5.00
2019-05-03T09:45:54.666Z,2.50
2019-05-03T09:48:25.506Z,2.30
2019-05-03T09:50:55.652Z,2.62
2019-05-03T09:53:25.749Z,2.60
2019-05-03T09:55:55.506Z,2.60
2019-05-03T09:58:26.203Z,3.25
2019-05-03T10:00:55.712Z,2.87
2019-05-03T10:03:24.252Z,3.22
2019-05-03T10:05:55.224Z,3.30
2019-05-03T10:08:25.254Z,2.83
2019-05-03T10:11:11.572Z,2.22
2019-05-03T10:13:42.014Z,2.92
2019-05-03T10:16:10.291Z,2.75
2019-05-03T10:18:38.830Z,2.80
2019-05-03T10:21:08.343Z,3.02
2019-05-03T10:23:38.516Z,3.52
2019-05-03T10:26:07.405Z,3.40
2019-05-03T10:28:35.944Z,2.55
2019-05-03T10:31:07.468Z,2.65
2019-05-03T10:33:48.664Z,2.50
2019-05-03T10:36:17.557Z,3.20
2019-05-03T10:38:46.325Z,2.25
2019-05-03T10:41:15.698Z,2.65
2019-05-03T10:43:45.137Z,2.20
2019-05-03T10:46:15.969Z,2.77
2019-05-03T10:48:45.264Z,2.60
2019-05-03T10:51:15.777Z,2.40
2019-05-03T10:53:45.819Z,2.05
2019-05-03T10:56:22.646Z,2.40
2019-05-03T10:58:50.706Z,2.58
2019-05-03T11:01:21.994Z,2.98
2019-05-03T11:03:50.471Z,2.77
2019-05-03T11:06:19.240Z,2.17
2019-05-03T11:08:47.791Z,3.20
2019-05-03T11:11:16.613Z,2.52
2019-05-03T11:13:45.074Z,2.62
2019-05-03T11:16:14.820Z,2.00
2019-05-03T11:18:45.447Z,2.70
2019-05-03T11:21:14.409Z,3.70
2019-05-03T11:23:45.029Z,2.50
2019-05-03T11:26:14.071Z,2.58
2019-05-03T11:28:44.724Z,2.55
2019-05-03T11:31:30.707Z,2.58
2019-05-03T11:34:00.822Z,2.33
2019-05-03T11:36:36.633Z,2.67
2019-05-03T11:39:07.511Z,2.25
2019-05-03T11:41:38.763Z,2.77
2019-05-03T11:44:25.384Z,2.40
2019-05-03T11:46:55.119Z,2.52
2019-05-03T11:49:25.456Z,2.20
2019-05-03T11:51:55.704Z,2.45
2019-05-03T11:54:25.031Z,2.50
2019-05-03T11:56:55.463Z,1.95
2019-05-03T11:59:25.553Z,2.05
2019-05-03T12:02:12.643Z,2.30
2019-05-03T12:04:41.371Z,2.87
2019-05-03T12:07:09.824Z,1.95
2019-05-03T12:09:38.568Z,2.45
2019-05-03T12:12:10.327Z,1.90
2019-05-03T12:14:38.800Z,3.47
2019-05-03T12:17:19.531Z,2.12
2019-05-03T12:19:43.392Z,2.30
2019-05-03T12:22:16.565Z,2.45
2019-05-03T12:24:46.521Z,1.75
2019-05-03T12:27:15.674Z,2.30
2019-05-03T12:29:44.829Z,2.55
2019-05-03T12:32:14.436Z,2.37
2019-05-03T12:34:43.477Z,2.55
2019-05-03T12:37:12.276Z,2.40
2019-05-03T12:39:40.996Z,2.25
2019-05-03T12:42:10.031Z,2.10
2019-05-03T12:44:38.479Z,2.02
2019-05-03T12:47:06.974Z,2.67
2019-05-03T12:49:36.088Z,2.58
2019-05-03T12:52:05.528Z,3.10
2019-05-03T12:54:35.598Z,2.70
2019-05-03T12:57:05.217Z,2.20
2019-05-03T12:59:52.123Z,2.47
2019-05-03T13:02:24.853Z,2.70
2019-05-03T13:04:55.290Z,2.17
2019-05-03T13:07:40.435Z,2.58
2019-05-03T13:10:09.128Z,2.22
2019-05-03T13:12:49.860Z,6.22
2019-05-03T13:15:09.704Z,3.02
2019-05-03T13:17:38.259Z,2.77
2019-05-03T13:20:12.642Z,2.67
2019-05-03T13:22:42.332Z,2.50
2019-05-03T13:25:13.067Z,2.45
2019-05-03T13:27:41.963Z,3.02
2019-05-03T13:30:11.064Z,2.47
2019-05-03T13:32:39.535Z,2.83
2019-05-03T13:35:08.629Z,2.37
2019-05-03T13:37:37.429Z,2.67
2019-05-03T13:40:09.412Z,2.70
2019-05-03T13:42:38.299Z,2.58
2019-05-03T13:45:08.011Z,3.65
2019-05-03T13:47:36.484Z,2.98
2019-05-03T13:50:08.187Z,2.40
2019-05-03T13:52:36.955Z,2.75
2019-05-03T13:55:06.971Z,2.75
2019-05-03T13:57:35.524Z,3.00
2019-05-03T14:00:09.051Z,2.65
2019-05-03T14:02:38.881Z,3.00
2019-05-03T14:05:07.479Z,3.10
2019-05-03T14:07:36.255Z,3.60
2019-05-03T14:10:08.696Z,3.30
2019-05-03T14:12:37.527Z,2.85
2019-05-03T14:15:08.379Z,3.15
2019-05-03T14:17:36.937Z,2.83
2019-05-03T14:20:09.012Z,3.33
2019-05-03T14:22:40.475Z,3.10
2019-05-03T14:25:09.076Z,2.87
2019-05-03T14:27:37.622Z,3.20
2019-05-03T14:30:07.889Z,3.55
2019-05-03T14:32:36.773Z,3.50
2019-05-03T14:35:06.562Z,3.25
2019-05-03T14:37:37.823Z,2.70
2019-05-03T14:40:08.015Z,2.70
2019-05-03T14:42:36.487Z,3.60
2019-05-03T14:45:08.011Z,2.72
2019-05-03T14:47:36.479Z,2.95
2019-05-03T14:50:06.401Z,2.55
2019-05-03T14:52:35.308Z,3.30
2019-05-03T14:55:07.901Z,2.72
2019-05-03T14:57:40.715Z,2.72
2019-05-03T15:00:11.158Z,2.70
2019-05-03T15:02:50.764Z,2.70
2019-05-03T15:05:16.127Z,2.30
2019-05-03T15:07:45.897Z,2.95
2019-05-03T15:10:15.098Z,2.45
2019-05-03T15:12:46.605Z,2.37
2019-05-03T15:15:15.585Z,2.72
2019-05-03T15:17:45.731Z,2.77
2019-05-03T15:20:14.931Z,2.42
2019-05-03T15:22:45.284Z,2.42
2019-05-03T15:25:14.481Z,2.72
2019-05-03T15:27:44.817Z,2.33
2019-05-03T15:30:15.592Z,2.90
2019-05-03T15:32:56.640Z,3.10
2019-05-03T15:35:17.663Z,3.12
2019-05-03T15:37:46.523Z,3.50
2019-05-03T15:40:15.698Z,3.05
2019-05-03T15:42:46.357Z,2.80
2019-05-03T15:45:19.558Z,2.85
2019-05-03T15:47:58.625Z,2.50
2019-05-03T15:50:27.105Z,2.87
2019-05-03T15:52:57.087Z,2.33
2019-05-03T15:55:25.555Z,2.62
2019-05-03T15:57:55.274Z,2.80
2019-05-03T16:00:24.513Z,2.98
2019-05-03T16:02:54.691Z,2.62
2019-05-03T16:05:24.926Z,3.15
2019-05-03T16:07:55.286Z,2.75
2019-05-03T16:10:24.959Z,2.42
2019-05-03T16:12:54.723Z,3.25
2019-05-03T16:15:24.597Z,2.60
2019-05-03T16:17:54.704Z,2.70
2019-05-03T16:20:24.977Z,2.72
2019-05-03T16:22:54.477Z,2.95
2019-05-03T16:25:25.090Z,2.80
2019-05-03T16:28:04.809Z,3.02
2019-05-03T16:30:45.437Z,2.77
2019-05-03T16:33:26.593Z,2.58
2019-05-03T16:35:45.960Z,3.27
2019-05-03T16:38:15.697Z,3.08
2019-05-03T16:40:45.136Z,3.10
2019-05-03T16:43:15.995Z,3.00
2019-05-03T16:45:44.582Z,3.10
2019-05-03T16:48:15.403Z,2.72
2019-05-03T16:50:45.204Z,3.10
2019-05-03T16:53:14.793Z,2.95
2019-05-03T16:55:44.340Z,2.67
2019-05-03T16:58:16.467Z,2.80
2019-05-03T17:00:44.746Z,2.98
2019-05-03T17:03:15.045Z,2.98
2019-05-03T17:05:45.504Z,2.87
2019-05-03T17:08:31.819Z,2.40
2019-05-03T17:11:08.363Z,1.92
2019-05-03T17:13:38.494Z,2.52
2019-05-03T17:16:07.044Z,2.83
2019-05-03T17:18:35.644Z,3.08
2019-05-03T17:21:05.712Z,2.72
2019-05-03T17:23:35.306Z,2.77
2019-05-03T17:26:04.395Z,2.50
2019-05-03T17:28:35.179Z,2.65
2019-05-03T17:31:04.543Z,2.70
2019-05-03T17:33:54.491Z,2.80
2019-05-03T17:36:24.913Z,3.05
2019-05-03T17:38:56.103Z,2.42
2019-05-03T17:41:42.707Z,3.42
2019-05-03T17:44:14.404Z,2.33
2019-05-03T17:46:45.271Z,2.85
2019-05-03T17:49:14.747Z,2.80
2019-05-03T17:52:04.842Z,2.90
2019-05-03T17:54:36.324Z,2.90
2019-05-03T17:57:21.804Z,3.10
2019-05-03T18:00:01.023Z,2.83
2019-05-03T18:02:34.118Z,3.05
2019-05-03T18:05:20.515Z,2.70
2019-05-03T18:08:07.528Z,2.75
2019-05-03T18:10:37.655Z,3.33
2019-05-03T18:13:06.548Z,3.12
2019-05-03T18:15:35.239Z,2.77
2019-05-03T18:18:05.280Z,2.87
2019-05-03T18:20:34.615Z,3.25
2019-05-03T18:23:04.977Z,3.08
2019-05-03T18:25:35.349Z,2.92
2019-05-03T18:28:04.319Z,4.22
2019-05-03T18:30:34.499Z,3.05
2019-05-03T18:33:04.737Z,3.12
2019-05-03T18:35:33.128Z,3.30
2019-05-03T18:38:01.939Z,3.08
2019-05-03T18:40:31.763Z,3.25
2019-05-03T18:43:01.859Z,3.47
2019-05-03T18:45:46.994Z,3.10
2019-05-03T18:48:15.455Z,3.00
2019-05-03T18:50:45.559Z,3.30
2019-05-03T18:53:15.068Z,3.05
2019-05-03T18:55:44.467Z,3.02
2019-05-03T18:58:14.755Z,3.30
2019-05-03T19:00:43.695Z,3.37
2019-05-03T19:03:12.141Z,3.20
2019-05-03T19:05:42.255Z,3.52
2019-05-03T19:08:12.838Z,3.55
2019-05-03T19:10:44.526Z,3.40
2019-05-03T19:13:17.255Z,2.98
2019-05-03T19:15:45.719Z,3.50
2019-05-03T19:18:30.830Z,3.25
2019-05-03T19:20:59.295Z,3.42
2019-05-03T19:23:27.743Z,3.33
2019-05-03T19:25:56.487Z,3.33
2019-05-03T19:28:26.515Z,3.30
2019-05-03T19:30:55.627Z,4.08
2019-05-03T19:33:24.138Z,3.72
2019-05-03T19:35:52.602Z,3.58
2019-05-03T19:38:21.376Z,3.87
2019-05-03T19:40:49.910Z,3.70
2019-05-03T19:43:18.371Z,3.67
2019-05-03T19:45:46.911Z,4.00
2019-05-03T19:48:17.008Z,3.30
2019-05-03T19:50:45.608Z,4.33
2019-05-03T19:53:18.350Z,3.58
2019-05-03T19:55:50.380Z,4.35
2019-05-03T19:58:18.597Z,4.20
2019-05-03T20:01:05.705Z,4.55
2019-05-03T20:03:38.907Z,4.65
2019-05-03T20:06:25.220Z,5.03
2019-05-03T20:09:10.843Z,5.12
2019-05-03T20:11:39.643Z,4.50
2019-05-03T20:14:08.092Z,4.50
2019-05-03T20:16:37.848Z,4.85
2019-05-03T20:19:17.740Z,4.90
2019-05-03T20:21:37.172Z,5.50
2019-05-03T20:24:06.083Z,4.83
2019-05-03T20:26:34.966Z,5.58
2019-05-03T20:29:03.482Z,5.70
2019-05-03T20:31:31.951Z,5.20
2019-05-03T20:34:00.404Z,5.10
2019-05-03T20:36:29.203Z,5.20
2019-05-03T20:38:57.656Z,5.25
2019-05-03T20:41:27.564Z,5.60
2019-05-03T20:43:58.247Z,5.75
2019-05-03T20:46:32.160Z,5.75
2019-05-03T20:49:04.329Z,6.08
2019-05-03T20:51:34.428Z,5.60
2019-05-03T20:54:04.804Z,5.53
2019-05-03T20:56:34.121Z,6.08
2019-05-03T20:59:02.596Z,6.20
2019-05-03T21:01:31.117Z,6.60
2019-05-03T21:03:59.748Z,6.37
2019-05-03T21:06:35.406Z,6.40
2019-05-03T21:08:58.391Z,5.78
2019-05-03T21:11:26.843Z,6.20
2019-05-03T21:13:55.638Z,6.17
2019-05-03T21:16:29.019Z,6.03
2019-05-03T21:19:02.011Z,5.90
2019-05-03T21:21:44.538Z,7.12
2019-05-03T21:24:15.017Z,6.67
2019-05-03T21:26:45.161Z,7.80
2019-05-03T21:29:15.168Z,7.25
2019-05-03T21:31:44.507Z,6.85
2019-05-03T21:34:14.790Z,7.62
2019-05-03T21:36:45.301Z,6.72
2019-05-03T21:39:14.658Z,7.92
2019-05-03T21:41:45.037Z,7.05
2019-05-03T21:44:15.683Z,8.50
2019-05-03T21:46:45.774Z,8.70
2019-05-03T21:49:15.879Z,7.85
2019-05-03T21:52:04.588Z,8.80
2019-05-03T21:54:34.646Z,8.13
2019-05-03T21:57:03.243Z,7.92
2019-05-03T21:59:31.715Z,6.80
2019-05-03T22:02:02.051Z,6.92
2019-05-03T22:04:30.519Z,7.47
2019-05-03T22:06:58.966Z,6.75
2019-05-03T22:09:27.711Z,7.17
2019-05-03T22:11:56.813Z,8.00
2019-05-03T22:14:45.384Z,7.42
2019-05-03T22:17:31.547Z,8.70
2019-05-03T22:20:01.929Z,7.53
2019-05-03T22:22:32.087Z,6.85
2019-05-03T22:25:04.615Z,7.75
2019-05-03T22:27:40.424Z,7.72
2019-05-03T22:30:10.162Z,7.53
2019-05-03T22:32:38.612Z,7.37
2019-05-03T22:35:10.083Z,7.12
2019-05-03T22:37:38.876Z,6.55
2019-05-03T22:40:07.880Z,7.03
2019-05-03T22:42:36.663Z,8.50
2019-05-03T22:45:06.670Z,7.62
2019-05-03T22:47:35.810Z,8.50
2019-05-03T22:50:05.493Z,6.60
2019-05-03T22:52:34.971Z,6.87
2019-05-03T22:55:06.666Z,7.85
2019-05-03T22:57:35.560Z,8.03
2019-05-03T23:00:07.527Z,8.03
2019-05-03T23:02:36.316Z,8.03
2019-05-03T23:05:05.923Z,7.90
2019-05-03T23:07:37.244Z,8.20
2019-05-03T23:10:07.030Z,7.90
2019-05-03T23:12:35.482Z,7.53
2019-05-03T23:15:07.091Z,7.28
2019-05-03T23:17:35.539Z,8.18
2019-05-03T23:20:15.024Z,6.67
2019-05-03T23:22:45.473Z,7.17
2019-05-03T23:25:14.393Z,6.87
2019-05-03T23:27:44.495Z,7.22
2019-05-03T23:30:15.355Z,7.83
2019-05-03T23:32:45.301Z,7.55
2019-05-03T23:35:14.267Z,7.58
2019-05-03T23:37:44.898Z,7.15
2019-05-03T23:40:14.807Z,6.80
2019-05-03T23:42:43.716Z,7.37
2019-05-03T23:45:12.303Z,6.35
2019-05-03T23:47:45.257Z,7.10
2019-05-03T23:50:17.362Z,7.05
2019-05-03T23:52:46.255Z,7.78
2019-05-03T23:55:25.106Z,8.63
2019-05-03T23:57:55.269Z,8.40
